sensor_id;sensor_type;location;lat;lon;timestamp;P1;durP1;ratioP1;P2;durP2;ratioP2
3939;SDS011;1984;48.312;9.244;2022-07-23T00:00:28;10.33;;;7.50;;
3939;SDS011;1984;48.312;9.244;2022-07-23T00:02:54;8.40;;;7.50;;
3939;SDS011;1984;48.312;9.244;2022-07-23T00:05:19;11.33;;;7.50;;
3939;SDS011;1984;48.312;9.244;2022-07-23T00:07:45;8.10;;;6.87;;
3939;SDS011;1984;48.312;9.244;2022-07-23T00:10:11;9.80;;;6.90;;
3939;SDS011;1984;48.312;9.244;2022-07-23T00:12:36;10.83;;;6.83;;
3939;SDS011;1984;48.312;9.244;2022-07-23T00:15:03;14.13;;;7.57;;
3939;SDS011;1984;48.312;9.244;2022-07-23T00:17:29;9.20;;;6.90;;
3939;SDS011;1984;48.312;9.244;2022-07-23T00:19:55;10.00;;;7.23;;
3939;SDS011;1984;48.312;9.244;2022-07-23T00:22:20;9.10;;;6.77;;
3939;SDS011;1984;48.312;9.244;2022-07-23T00:24:46;10.17;;;7.10;;
3939;SDS011;1984;48.312;9.244;2022-07-23T00:27:11;15.60;;;6.83;;
3939;SDS011;1984;48.312;9.244;2022-07-23T00:29:37;10.00;;;6.83;;
3939;SDS011;1984;48.312;9.244;2022-07-23T00:32:03;8.07;;;6.63;;
3939;SDS011;1984;48.312;9.244;2022-07-23T00:34:29;9.50;;;6.67;;
3939;SDS011;1984;48.312;9.244;2022-07-23T00:36:54;8.80;;;7.37;;
3939;SDS011;1984;48.312;9.244;2022-07-23T00:39:20;9.63;;;6.40;;
3939;SDS011;1984;48.312;9.244;2022-07-23T00:41:47;10.77;;;7.60;;
3939;SDS011;1984;48.312;9.244;2022-07-23T00:44:16;11.33;;;7.30;;
3939;SDS011;1984;48.312;9.244;2022-07-23T00:46:49;9.33;;;7.20;;
3939;SDS011;1984;48.312;9.244;2022-07-23T00:49:19;9.20;;;7.00;;
3939;SDS011;1984;48.312;9.244;2022-07-23T00:51:45;10.77;;;8.60;;
3939;SDS011;1984;48.312;9.244;2022-07-23T00:54:11;7.43;;;6.60;;
3939;SDS011;1984;48.312;9.244;2022-07-23T00:56:37;10.43;;;7.93;;
3939;SDS011;1984;48.312;9.244;2022-07-23T00:59:03;9.67;;;7.00;;
3939;SDS011;1984;48.312;9.244;2022-07-23T01:01:28;8.13;;;6.67;;
3939;SDS011;1984;48.312;9.244;2022-07-23T01:03:54;10.00;;;7.40;;
3939;SDS011;1984;48.312;9.244;2022-07-23T01:06:19;8.90;;;7.00;;
3939;SDS011;1984;48.312;9.244;2022-07-23T01:08:45;13.00;;;8.13;;
3939;SDS011;1984;48.312;9.244;2022-07-23T01:11:11;9.00;;;7.20;;
3939;SDS011;1984;48.312;9.244;2022-07-23T01:13:40;8.93;;;7.50;;
3939;SDS011;1984;48.312;9.244;2022-07-23T01:16:07;9.93;;;7.20;;
3939;SDS011;1984;48.312;9.244;2022-07-23T01:18:33;10.87;;;6.90;;
3939;SDS011;1984;48.312;9.244;2022-07-23T01:20:58;11.67;;;7.20;;
3939;SDS011;1984;48.312;9.244;2022-07-23T01:23:24;8.93;;;7.00;;
3939;SDS011;1984;48.312;9.244;2022-07-23T01:25:53;9.90;;;7.63;;
3939;SDS011;1984;48.312;9.244;2022-07-23T01:28:19;12.80;;;7.87;;
3939;SDS011;1984;48.312;9.244;2022-07-23T01:30:45;9.50;;;7.17;;
3939;SDS011;1984;48.312;9.244;2022-07-23T01:33:12;9.27;;;6.60;;
3939;SDS011;1984;48.312;9.244;2022-07-23T01:35:38;9.47;;;7.57;;
3939;SDS011;1984;48.312;9.244;2022-07-23T01:38:03;8.10;;;6.53;;
3939;SDS011;1984;48.312;9.244;2022-07-23T01:40:29;11.70;;;7.90;;
3939;SDS011;1984;48.312;9.244;2022-07-23T01:42:54;10.80;;;7.57;;
3939;SDS011;1984;48.312;9.244;2022-07-23T01:45:20;8.67;;;7.60;;
3939;SDS011;1984;48.312;9.244;2022-07-23T01:47:45;9.40;;;7.50;;
3939;SDS011;1984;48.312;9.244;2022-07-23T01:50:12;8.30;;;7.37;;
3939;SDS011;1984;48.312;9.244;2022-07-23T01:52:38;8.07;;;7.27;;
3939;SDS011;1984;48.312;9.244;2022-07-23T01:55:03;13.33;;;7.47;;
3939;SDS011;1984;48.312;9.244;2022-07-23T01:57:30;9.37;;;7.73;;
3939;SDS011;1984;48.312;9.244;2022-07-23T01:59:56;8.53;;;7.63;;
3939;SDS011;1984;48.312;9.244;2022-07-23T02:02:22;10.47;;;8.47;;
3939;SDS011;1984;48.312;9.244;2022-07-23T02:04:47;9.40;;;7.90;;
3939;SDS011;1984;48.312;9.244;2022-07-23T02:07:13;9.60;;;6.33;;
3939;SDS011;1984;48.312;9.244;2022-07-23T02:09:38;8.90;;;7.30;;
3939;SDS011;1984;48.312;9.244;2022-07-23T02:12:04;11.83;;;8.27;;
3939;SDS011;1984;48.312;9.244;2022-07-23T02:14:30;10.20;;;7.43;;
3939;SDS011;1984;48.312;9.244;2022-07-23T02:16:55;9.60;;;7.13;;
3939;SDS011;1984;48.312;9.244;2022-07-23T02:19:21;15.63;;;7.57;;
3939;SDS011;1984;48.312;9.244;2022-07-23T02:21:46;11.53;;;7.90;;
3939;SDS011;1984;48.312;9.244;2022-07-23T02:24:12;10.43;;;7.43;;
3939;SDS011;1984;48.312;9.244;2022-07-23T02:26:37;9.83;;;7.20;;
3939;SDS011;1984;48.312;9.244;2022-07-23T02:29:03;11.57;;;8.17;;
3939;SDS011;1984;48.312;9.244;2022-07-23T02:31:29;14.10;;;8.63;;
3939;SDS011;1984;48.312;9.244;2022-07-23T02:33:56;10.03;;;7.50;;
3939;SDS011;1984;48.312;9.244;2022-07-23T02:36:21;10.67;;;7.73;;
3939;SDS011;1984;48.312;9.244;2022-07-23T02:38:47;10.10;;;7.30;;
3939;SDS011;1984;48.312;9.244;2022-07-23T02:41:12;9.00;;;6.80;;
3939;SDS011;1984;48.312;9.244;2022-07-23T02:43:38;10.00;;;7.50;;
3939;SDS011;1984;48.312;9.244;2022-07-23T02:46:04;9.20;;;6.97;;
3939;SDS011;1984;48.312;9.244;2022-07-23T02:48:29;14.83;;;7.80;;
3939;SDS011;1984;48.312;9.244;2022-07-23T02:50:55;10.83;;;7.00;;
3939;SDS011;1984;48.312;9.244;2022-07-23T02:53:21;8.90;;;6.83;;
3939;SDS011;1984;48.312;9.244;2022-07-23T02:55:47;9.23;;;7.40;;
3939;SDS011;1984;48.312;9.244;2022-07-23T02:58:13;8.77;;;7.10;;
3939;SDS011;1984;48.312;9.244;2022-07-23T03:00:38;9.30;;;7.83;;
3939;SDS011;1984;48.312;9.244;2022-07-23T03:03:04;10.13;;;6.97;;
3939;SDS011;1984;48.312;9.244;2022-07-23T03:05:29;11.43;;;7.70;;
3939;SDS011;1984;48.312;9.244;2022-07-23T03:07:55;9.23;;;8.03;;
3939;SDS011;1984;48.312;9.244;2022-07-23T03:10:20;18.10;;;8.07;;
3939;SDS011;1984;48.312;9.244;2022-07-23T03:12:46;10.57;;;8.30;;
3939;SDS011;1984;48.312;9.244;2022-07-23T03:15:11;9.03;;;8.00;;
3939;SDS011;1984;48.312;9.244;2022-07-23T03:17:37;11.00;;;7.77;;
3939;SDS011;1984;48.312;9.244;2022-07-23T03:20:02;11.03;;;8.27;;
3939;SDS011;1984;48.312;9.244;2022-07-23T03:22:28;9.20;;;7.90;;
3939;SDS011;1984;48.312;9.244;2022-07-23T03:24:53;13.30;;;8.60;;
3939;SDS011;1984;48.312;9.244;2022-07-23T03:27:19;10.50;;;8.03;;
3939;SDS011;1984;48.312;9.244;2022-07-23T03:29:45;14.17;;;8.37;;
3939;SDS011;1984;48.312;9.244;2022-07-23T03:32:11;9.90;;;8.37;;
3939;SDS011;1984;48.312;9.244;2022-07-23T03:34:36;12.00;;;8.17;;
3939;SDS011;1984;48.312;9.244;2022-07-23T03:37:03;9.30;;;7.67;;
3939;SDS011;1984;48.312;9.244;2022-07-23T03:39:28;10.30;;;8.30;;
3939;SDS011;1984;48.312;9.244;2022-07-23T03:41:54;15.53;;;8.63;;
3939;SDS011;1984;48.312;9.244;2022-07-23T03:44:19;13.70;;;9.00;;
3939;SDS011;1984;48.312;9.244;2022-07-23T03:46:45;10.27;;;8.23;;
3939;SDS011;1984;48.312;9.244;2022-07-23T03:49:10;9.00;;;7.37;;
3939;SDS011;1984;48.312;9.244;2022-07-23T03:51:36;11.13;;;8.03;;
3939;SDS011;1984;48.312;9.244;2022-07-23T03:54:01;10.03;;;7.77;;
3939;SDS011;1984;48.312;9.244;2022-07-23T03:56:27;12.87;;;7.40;;
3939;SDS011;1984;48.312;9.244;2022-07-23T03:58:52;10.83;;;7.63;;
3939;SDS011;1984;48.312;9.244;2022-07-23T04:01:18;10.20;;;8.17;;
3939;SDS011;1984;48.312;9.244;2022-07-23T04:03:43;18.00;;;8.80;;
3939;SDS011;1984;48.312;9.244;2022-07-23T04:06:09;10.00;;;7.63;;
3939;SDS011;1984;48.312;9.244;2022-07-23T04:08:35;11.27;;;8.10;;
3939;SDS011;1984;48.312;9.244;2022-07-23T04:11:00;13.70;;;7.33;;
3939;SDS011;1984;48.312;9.244;2022-07-23T04:13:26;12.30;;;8.30;;
3939;SDS011;1984;48.312;9.244;2022-07-23T04:15:51;12.87;;;7.67;;
3939;SDS011;1984;48.312;9.244;2022-07-23T04:18:17;9.27;;;8.20;;
3939;SDS011;1984;48.312;9.244;2022-07-23T04:20:43;9.57;;;7.60;;
3939;SDS011;1984;48.312;9.244;2022-07-23T04:23:09;12.03;;;8.07;;
3939;SDS011;1984;48.312;9.244;2022-07-23T04:25:35;16.00;;;8.40;;
3939;SDS011;1984;48.312;9.244;2022-07-23T04:28:01;9.40;;;7.40;;
3939;SDS011;1984;48.312;9.244;2022-07-23T04:30:27;10.60;;;8.30;;
3939;SDS011;1984;48.312;9.244;2022-07-23T04:32:52;13.90;;;7.50;;
3939;SDS011;1984;48.312;9.244;2022-07-23T04:35:18;12.37;;;8.17;;
3939;SDS011;1984;48.312;9.244;2022-07-23T04:37:44;11.27;;;7.50;;
3939;SDS011;1984;48.312;9.244;2022-07-23T04:40:10;9.23;;;7.00;;
3939;SDS011;1984;48.312;9.244;2022-07-23T04:42:36;10.43;;;7.80;;
3939;SDS011;1984;48.312;9.244;2022-07-23T04:45:02;8.13;;;7.13;;
3939;SDS011;1984;48.312;9.244;2022-07-23T04:47:28;9.27;;;7.27;;
3939;SDS011;1984;48.312;9.244;2022-07-23T04:49:54;10.00;;;8.13;;
3939;SDS011;1984;48.312;9.244;2022-07-23T04:52:20;8.73;;;7.80;;
3939;SDS011;1984;48.312;9.244;2022-07-23T04:54:45;9.30;;;7.90;;
3939;SDS011;1984;48.312;9.244;2022-07-23T04:57:11;10.80;;;8.30;;
3939;SDS011;1984;48.312;9.244;2022-07-23T04:59:36;16.43;;;9.00;;
3939;SDS011;1984;48.312;9.244;2022-07-23T05:02:02;10.87;;;8.33;;
3939;SDS011;1984;48.312;9.244;2022-07-23T05:04:27;13.83;;;8.57;;
3939;SDS011;1984;48.312;9.244;2022-07-23T05:06:53;15.43;;;10.20;;
3939;SDS011;1984;48.312;9.244;2022-07-23T05:09:18;18.13;;;9.33;;
3939;SDS011;1984;48.312;9.244;2022-07-23T05:11:44;12.90;;;8.83;;
3939;SDS011;1984;48.312;9.244;2022-07-23T05:14:09;13.00;;;9.40;;
3939;SDS011;1984;48.312;9.244;2022-07-23T05:16:37;11.13;;;8.10;;
3939;SDS011;1984;48.312;9.244;2022-07-23T05:19:03;10.17;;;8.40;;
3939;SDS011;1984;48.312;9.244;2022-07-23T05:21:28;10.50;;;7.60;;
3939;SDS011;1984;48.312;9.244;2022-07-23T05:23:54;13.63;;;8.10;;
3939;SDS011;1984;48.312;9.244;2022-07-23T05:26:19;9.90;;;8.10;;
3939;SDS011;1984;48.312;9.244;2022-07-23T05:28:45;13.30;;;8.10;;
3939;SDS011;1984;48.312;9.244;2022-07-23T05:31:10;11.70;;;8.20;;
3939;SDS011;1984;48.312;9.244;2022-07-23T05:33:36;12.30;;;7.73;;
3939;SDS011;1984;48.312;9.244;2022-07-23T05:36:02;8.00;;;7.20;;
3939;SDS011;1984;48.312;9.244;2022-07-23T05:38:28;8.83;;;7.50;;
3939;SDS011;1984;48.312;9.244;2022-07-23T05:40:54;9.80;;;7.83;;
3939;SDS011;1984;48.312;9.244;2022-07-23T05:43:20;16.10;;;8.00;;
3939;SDS011;1984;48.312;9.244;2022-07-23T05:45:45;12.40;;;7.83;;
3939;SDS011;1984;48.312;9.244;2022-07-23T05:48:11;8.63;;;7.60;;
3939;SDS011;1984;48.312;9.244;2022-07-23T05:50:36;11.93;;;7.67;;
3939;SDS011;1984;48.312;9.244;2022-07-23T05:53:02;16.20;;;7.50;;
3939;SDS011;1984;48.312;9.244;2022-07-23T05:55:27;13.60;;;6.70;;
3939;SDS011;1984;48.312;9.244;2022-07-23T05:57:54;30.60;;;7.57;;
3939;SDS011;1984;48.312;9.244;2022-07-23T06:00:24;13.90;;;7.67;;
3939;SDS011;1984;48.312;9.244;2022-07-23T06:02:50;10.13;;;7.20;;
3939;SDS011;1984;48.312;9.244;2022-07-23T06:05:16;9.80;;;7.40;;
3939;SDS011;1984;48.312;9.244;2022-07-23T06:07:41;11.43;;;6.53;;
3939;SDS011;1984;48.312;9.244;2022-07-23T06:10:07;7.47;;;6.73;;
3939;SDS011;1984;48.312;9.244;2022-07-23T06:12:33;10.50;;;7.00;;
3939;SDS011;1984;48.312;9.244;2022-07-23T06:14:59;8.30;;;5.90;;
3939;SDS011;1984;48.312;9.244;2022-07-23T06:17:24;8.57;;;6.60;;
3939;SDS011;1984;48.312;9.244;2022-07-23T06:19:50;8.03;;;6.43;;
3939;SDS011;1984;48.312;9.244;2022-07-23T06:22:16;9.00;;;6.67;;
3939;SDS011;1984;48.312;9.244;2022-07-23T06:24:41;11.13;;;7.50;;
3939;SDS011;1984;48.312;9.244;2022-07-23T06:27:07;9.27;;;7.23;;
3939;SDS011;1984;48.312;9.244;2022-07-23T06:29:32;9.00;;;7.60;;
3939;SDS011;1984;48.312;9.244;2022-07-23T06:31:58;8.90;;;7.47;;
3939;SDS011;1984;48.312;9.244;2022-07-23T06:34:23;7.50;;;6.40;;
3939;SDS011;1984;48.312;9.244;2022-07-23T06:36:49;8.27;;;6.57;;
3939;SDS011;1984;48.312;9.244;2022-07-23T06:39:15;9.10;;;7.43;;
3939;SDS011;1984;48.312;9.244;2022-07-23T06:41:40;8.70;;;7.07;;
3939;SDS011;1984;48.312;9.244;2022-07-23T06:44:06;8.30;;;6.57;;
3939;SDS011;1984;48.312;9.244;2022-07-23T06:46:32;10.00;;;7.50;;
3939;SDS011;1984;48.312;9.244;2022-07-23T06:48:58;9.37;;;7.43;;
3939;SDS011;1984;48.312;9.244;2022-07-23T06:51:24;11.53;;;7.00;;
3939;SDS011;1984;48.312;9.244;2022-07-23T06:53:49;10.47;;;7.37;;
3939;SDS011;1984;48.312;9.244;2022-07-23T06:56:15;8.13;;;6.00;;
3939;SDS011;1984;48.312;9.244;2022-07-23T06:58:40;9.30;;;6.77;;
3939;SDS011;1984;48.312;9.244;2022-07-23T07:01:06;7.97;;;6.13;;
3939;SDS011;1984;48.312;9.244;2022-07-23T07:03:31;8.60;;;6.17;;
3939;SDS011;1984;48.312;9.244;2022-07-23T07:05:57;8.83;;;6.20;;
3939;SDS011;1984;48.312;9.244;2022-07-23T07:08:23;7.77;;;6.00;;
3939;SDS011;1984;48.312;9.244;2022-07-23T07:10:49;7.60;;;6.03;;
3939;SDS011;1984;48.312;9.244;2022-07-23T07:13:14;6.30;;;5.70;;
3939;SDS011;1984;48.312;9.244;2022-07-23T07:15:40;7.20;;;5.37;;
3939;SDS011;1984;48.312;9.244;2022-07-23T07:18:06;6.20;;;5.57;;
3939;SDS011;1984;48.312;9.244;2022-07-23T07:20:31;8.30;;;5.60;;
3939;SDS011;1984;48.312;9.244;2022-07-23T07:22:57;5.57;;;5.03;;
3939;SDS011;1984;48.312;9.244;2022-07-23T07:25:22;6.43;;;4.50;;
3939;SDS011;1984;48.312;9.244;2022-07-23T07:27:48;5.60;;;5.10;;
3939;SDS011;1984;48.312;9.244;2022-07-23T07:30:14;6.13;;;5.37;;
3939;SDS011;1984;48.312;9.244;2022-07-23T07:32:39;6.07;;;4.93;;
3939;SDS011;1984;48.312;9.244;2022-07-23T07:35:05;7.60;;;5.00;;
3939;SDS011;1984;48.312;9.244;2022-07-23T07:37:31;5.83;;;4.67;;
3939;SDS011;1984;48.312;9.244;2022-07-23T07:39:57;5.13;;;4.67;;
3939;SDS011;1984;48.312;9.244;2022-07-23T07:42:22;5.13;;;4.63;;
3939;SDS011;1984;48.312;9.244;2022-07-23T07:44:48;6.23;;;4.67;;
3939;SDS011;1984;48.312;9.244;2022-07-23T07:47:13;4.57;;;4.17;;
3939;SDS011;1984;48.312;9.244;2022-07-23T07:49:40;4.47;;;4.07;;
3939;SDS011;1984;48.312;9.244;2022-07-23T07:52:07;4.63;;;4.23;;
3939;SDS011;1984;48.312;9.244;2022-07-23T07:54:32;6.90;;;3.77;;
3939;SDS011;1984;48.312;9.244;2022-07-23T07:56:58;4.37;;;4.07;;
3939;SDS011;1984;48.312;9.244;2022-07-23T07:59:24;7.37;;;4.07;;
3939;SDS011;1984;48.312;9.244;2022-07-23T08:01:50;4.03;;;3.73;;
3939;SDS011;1984;48.312;9.244;2022-07-23T08:04:16;5.27;;;4.10;;
3939;SDS011;1984;48.312;9.244;2022-07-23T08:06:42;9.43;;;4.30;;
3939;SDS011;1984;48.312;9.244;2022-07-23T08:09:07;5.63;;;3.37;;
3939;SDS011;1984;48.312;9.244;2022-07-23T08:11:33;5.10;;;4.40;;
3939;SDS011;1984;48.312;9.244;2022-07-23T08:13:58;5.03;;;4.53;;
3939;SDS011;1984;48.312;9.244;2022-07-23T08:16:24;5.27;;;4.30;;
3939;SDS011;1984;48.312;9.244;2022-07-23T08:18:50;8.63;;;5.00;;
3939;SDS011;1984;48.312;9.244;2022-07-23T08:21:15;4.70;;;4.40;;
3939;SDS011;1984;48.312;9.244;2022-07-23T08:23:41;5.27;;;4.77;;
3939;SDS011;1984;48.312;9.244;2022-07-23T08:26:06;10.00;;;4.93;;
3939;SDS011;1984;48.312;9.244;2022-07-23T08:28:32;5.70;;;5.20;;
3939;SDS011;1984;48.312;9.244;2022-07-23T08:30:58;6.73;;;5.17;;
3939;SDS011;1984;48.312;9.244;2022-07-23T08:33:24;5.03;;;4.50;;
3939;SDS011;1984;48.312;9.244;2022-07-23T08:35:50;14.50;;;7.23;;
3939;SDS011;1984;48.312;9.244;2022-07-23T08:38:18;6.30;;;4.60;;
3939;SDS011;1984;48.312;9.244;2022-07-23T08:40:49;5.83;;;5.23;;
3939;SDS011;1984;48.312;9.244;2022-07-23T08:43:18;5.83;;;5.30;;
3939;SDS011;1984;48.312;9.244;2022-07-23T08:45:50;7.17;;;5.17;;
3939;SDS011;1984;48.312;9.244;2022-07-23T08:48:18;8.60;;;5.27;;
3939;SDS011;1984;48.312;9.244;2022-07-23T08:50:46;6.90;;;4.97;;
3939;SDS011;1984;48.312;9.244;2022-07-23T08:53:17;6.37;;;5.17;;
3939;SDS011;1984;48.312;9.244;2022-07-23T08:55:46;8.90;;;5.10;;
3939;SDS011;1984;48.312;9.244;2022-07-23T08:58:14;6.53;;;5.00;;
3939;SDS011;1984;48.312;9.244;2022-07-23T09:00:41;8.00;;;6.20;;
3939;SDS011;1984;48.312;9.244;2022-07-23T09:03:07;6.53;;;5.90;;
3939;SDS011;1984;48.312;9.244;2022-07-23T09:05:36;6.80;;;5.73;;
3939;SDS011;1984;48.312;9.244;2022-07-23T09:08:15;6.97;;;5.47;;
3939;SDS011;1984;48.312;9.244;2022-07-23T09:10:47;6.20;;;5.33;;
3939;SDS011;1984;48.312;9.244;2022-07-23T09:15:55;8.70;;;5.37;;
3939;SDS011;1984;48.312;9.244;2022-07-23T09:18:33;5.10;;;4.70;;
3939;SDS011;1984;48.312;9.244;2022-07-23T09:21:14;5.40;;;5.00;;
3939;SDS011;1984;48.312;9.244;2022-07-23T09:23:42;6.97;;;4.97;;
3939;SDS011;1984;48.312;9.244;2022-07-23T09:26:20;5.53;;;5.03;;
3939;SDS011;1984;48.312;9.244;2022-07-23T09:29:33;5.03;;;4.57;;
3939;SDS011;1984;48.312;9.244;2022-07-23T09:36:39;5.23;;;4.83;;
3939;SDS011;1984;48.312;9.244;2022-07-23T09:39:05;8.67;;;6.53;;
3939;SDS011;1984;48.312;9.244;2022-07-23T09:41:39;6.67;;;5.87;;
3939;SDS011;1984;48.312;9.244;2022-07-23T09:44:14;6.43;;;5.53;;
3939;SDS011;1984;48.312;9.244;2022-07-23T09:46:45;6.33;;;5.73;;
3939;SDS011;1984;48.312;9.244;2022-07-23T09:49:20;7.03;;;5.93;;
3939;SDS011;1984;48.312;9.244;2022-07-23T09:54:29;6.53;;;5.93;;
3939;SDS011;1984;48.312;9.244;2022-07-23T09:57:01;6.50;;;5.60;;
3939;SDS011;1984;48.312;9.244;2022-07-23T09:59:31;7.77;;;6.17;;
3939;SDS011;1984;48.312;9.244;2022-07-23T10:02:00;6.47;;;5.63;;
3939;SDS011;1984;48.312;9.244;2022-07-23T10:04:29;5.90;;;5.30;;
3939;SDS011;1984;48.312;9.244;2022-07-23T10:06:56;6.80;;;6.10;;
3939;SDS011;1984;48.312;9.244;2022-07-23T10:09:25;7.60;;;5.53;;
3939;SDS011;1984;48.312;9.244;2022-07-23T10:11:54;8.47;;;6.37;;
3939;SDS011;1984;48.312;9.244;2022-07-23T10:14:41;9.93;;;7.37;;
3939;SDS011;1984;48.312;9.244;2022-07-23T10:17:07;6.47;;;5.70;;
3939;SDS011;1984;48.312;9.244;2022-07-23T10:19:34;7.93;;;6.20;;
3939;SDS011;1984;48.312;9.244;2022-07-23T10:24:41;6.73;;;5.70;;
3939;SDS011;1984;48.312;9.244;2022-07-23T10:27:35;7.13;;;5.50;;
3939;SDS011;1984;48.312;9.244;2022-07-23T10:33:12;6.10;;;5.60;;
3939;SDS011;1984;48.312;9.244;2022-07-23T10:36:02;6.67;;;5.97;;
3939;SDS011;1984;48.312;9.244;2022-07-23T10:41:13;6.32;;;5.30;;
3939;SDS011;1984;48.312;9.244;2022-07-23T10:43:38;6.28;;;5.15;;
3939;SDS011;1984;48.312;9.244;2022-07-23T10:49:33;5.90;;;5.30;;
3939;SDS011;1984;48.312;9.244;2022-07-23T10:57:16;4.82;;;4.30;;
3939;SDS011;1984;48.312;9.244;2022-07-23T11:02:26;6.00;;;5.40;;
3939;SDS011;1984;48.312;9.244;2022-07-23T11:04:54;6.00;;;5.40;;
3939;SDS011;1984;48.312;9.244;2022-07-23T11:07:25;10.33;;;5.40;;
3939;SDS011;1984;48.312;9.244;2022-07-23T11:09:51;5.70;;;4.90;;
3939;SDS011;1984;48.312;9.244;2022-07-23T11:15:00;6.60;;;5.60;;
3939;SDS011;1984;48.312;9.244;2022-07-23T11:17:26;5.63;;;5.00;;
3939;SDS011;1984;48.312;9.244;2022-07-23T11:25:12;5.67;;;5.17;;
3939;SDS011;1984;48.312;9.244;2022-07-23T11:27:53;6.00;;;5.40;;
3939;SDS011;1984;48.312;9.244;2022-07-23T11:32:54;5.90;;;5.30;;
3939;SDS011;1984;48.312;9.244;2022-07-23T11:35:44;5.80;;;5.30;;
3939;SDS011;1984;48.312;9.244;2022-07-23T11:40:45;6.30;;;5.80;;
3939;SDS011;1984;48.312;9.244;2022-07-23T11:43:12;5.63;;;5.13;;
3939;SDS011;1984;48.312;9.244;2022-07-23T11:45:44;5.57;;;5.17;;
3939;SDS011;1984;48.312;9.244;2022-07-23T11:48:21;6.20;;;5.67;;
3939;SDS011;1984;48.312;9.244;2022-07-23T11:50:51;5.83;;;5.33;;
3939;SDS011;1984;48.312;9.244;2022-07-23T11:53:25;5.93;;;5.33;;
3939;SDS011;1984;48.312;9.244;2022-07-23T11:55:53;7.37;;;5.97;;
3939;SDS011;1984;48.312;9.244;2022-07-23T11:58:20;6.03;;;4.97;;
3939;SDS011;1984;48.312;9.244;2022-07-23T12:00:46;5.50;;;4.97;;
3939;SDS011;1984;48.312;9.244;2022-07-23T12:03:12;8.30;;;5.77;;
3939;SDS011;1984;48.312;9.244;2022-07-23T12:05:38;6.33;;;5.70;;
3939;SDS011;1984;48.312;9.244;2022-07-23T12:08:04;6.67;;;6.00;;
3939;SDS011;1984;48.312;9.244;2022-07-23T12:10:36;6.03;;;5.37;;
3939;SDS011;1984;48.312;9.244;2022-07-23T12:13:08;6.10;;;5.50;;
3939;SDS011;1984;48.312;9.244;2022-07-23T12:15:36;10.53;;;5.43;;
3939;SDS011;1984;48.312;9.244;2022-07-23T12:18:04;7.63;;;6.40;;
3939;SDS011;1984;48.312;9.244;2022-07-23T12:20:35;6.23;;;5.67;;
3939;SDS011;1984;48.312;9.244;2022-07-23T12:23:05;6.00;;;5.50;;
3939;SDS011;1984;48.312;9.244;2022-07-23T12:25:33;6.07;;;5.40;;
3939;SDS011;1984;48.312;9.244;2022-07-23T12:30:52;8.10;;;5.20;;
3939;SDS011;1984;48.312;9.244;2022-07-23T12:33:26;7.73;;;5.67;;
3939;SDS011;1984;48.312;9.244;2022-07-23T12:36:00;7.27;;;5.70;;
3939;SDS011;1984;48.312;9.244;2022-07-23T12:39:04;6.60;;;5.57;;
3939;SDS011;1984;48.312;9.244;2022-07-23T12:41:24;7.67;;;5.80;;
3939;SDS011;1984;48.312;9.244;2022-07-23T12:43:49;6.60;;;5.90;;
3939;SDS011;1984;48.312;9.244;2022-07-23T12:46:19;8.17;;;6.57;;
3939;SDS011;1984;48.312;9.244;2022-07-23T12:51:26;6.50;;;5.90;;
3939;SDS011;1984;48.312;9.244;2022-07-23T12:53:58;8.37;;;6.10;;
3939;SDS011;1984;48.312;9.244;2022-07-23T12:56:27;7.47;;;6.57;;
3939;SDS011;1984;48.312;9.244;2022-07-23T13:01:30;8.50;;;5.87;;
3939;SDS011;1984;48.312;9.244;2022-07-23T13:03:58;6.37;;;5.77;;
3939;SDS011;1984;48.312;9.244;2022-07-23T13:09:01;8.00;;;6.40;;
3939;SDS011;1984;48.312;9.244;2022-07-23T13:11:28;6.20;;;5.57;;
3939;SDS011;1984;48.312;9.244;2022-07-23T13:13:55;10.20;;;6.50;;
3939;SDS011;1984;48.312;9.244;2022-07-23T13:16:20;6.17;;;5.43;;
3939;SDS011;1984;48.312;9.244;2022-07-23T13:18:46;7.93;;;6.07;;
3939;SDS011;1984;48.312;9.244;2022-07-23T13:21:11;7.30;;;5.33;;
3939;SDS011;1984;48.312;9.244;2022-07-23T13:23:37;7.37;;;5.90;;
3939;SDS011;1984;48.312;9.244;2022-07-23T13:26:03;6.40;;;5.67;;
3939;SDS011;1984;48.312;9.244;2022-07-23T13:28:29;6.10;;;5.53;;
3939;SDS011;1984;48.312;9.244;2022-07-23T13:30:55;6.13;;;5.60;;
3939;SDS011;1984;48.312;9.244;2022-07-23T13:33:22;13.43;;;5.80;;
3939;SDS011;1984;48.312;9.244;2022-07-23T13:35:49;6.83;;;5.90;;
3939;SDS011;1984;48.312;9.244;2022-07-23T13:38:15;9.20;;;6.00;;
3939;SDS011;1984;48.312;9.244;2022-07-23T13:40:42;9.63;;;5.93;;
3939;SDS011;1984;48.312;9.244;2022-07-23T13:43:09;6.43;;;5.83;;
3939;SDS011;1984;48.312;9.244;2022-07-23T13:45:36;8.33;;;5.63;;
3939;SDS011;1984;48.312;9.244;2022-07-23T13:48:03;6.97;;;6.37;;
3939;SDS011;1984;48.312;9.244;2022-07-23T13:50:29;6.07;;;5.47;;
3939;SDS011;1984;48.312;9.244;2022-07-23T13:52:55;7.77;;;6.00;;
3939;SDS011;1984;48.312;9.244;2022-07-23T13:55:20;8.00;;;5.43;;
3939;SDS011;1984;48.312;9.244;2022-07-23T13:57:46;5.87;;;5.20;;
3939;SDS011;1984;48.312;9.244;2022-07-23T14:00:11;7.50;;;5.70;;
3939;SDS011;1984;48.312;9.244;2022-07-23T14:02:38;7.33;;;5.60;;
3939;SDS011;1984;48.312;9.244;2022-07-23T14:05:05;6.97;;;5.97;;
3939;SDS011;1984;48.312;9.244;2022-07-23T14:07:32;7.77;;;5.63;;
3939;SDS011;1984;48.312;9.244;2022-07-23T14:09:58;6.23;;;5.67;;
3939;SDS011;1984;48.312;9.244;2022-07-23T14:12:23;6.47;;;5.73;;
3939;SDS011;1984;48.312;9.244;2022-07-23T14:14:50;6.13;;;5.63;;
3939;SDS011;1984;48.312;9.244;2022-07-23T14:17:15;6.93;;;5.67;;
3939;SDS011;1984;48.312;9.244;2022-07-23T14:19:41;5.97;;;5.47;;
3939;SDS011;1984;48.312;9.244;2022-07-23T14:22:06;6.33;;;5.60;;
3939;SDS011;1984;48.312;9.244;2022-07-23T14:24:32;6.10;;;5.60;;
3939;SDS011;1984;48.312;9.244;2022-07-23T14:26:59;6.10;;;5.60;;
3939;SDS011;1984;48.312;9.244;2022-07-23T14:29:26;5.77;;;5.27;;
3939;SDS011;1984;48.312;9.244;2022-07-23T14:31:51;6.97;;;6.27;;
3939;SDS011;1984;48.312;9.244;2022-07-23T14:34:17;6.03;;;5.03;;
3939;SDS011;1984;48.312;9.244;2022-07-23T14:36:43;7.93;;;5.40;;
3939;SDS011;1984;48.312;9.244;2022-07-23T14:39:08;6.70;;;6.00;;
3939;SDS011;1984;48.312;9.244;2022-07-23T14:41:34;9.60;;;5.63;;
3939;SDS011;1984;48.312;9.244;2022-07-23T14:44:00;5.80;;;5.30;;
3939;SDS011;1984;48.312;9.244;2022-07-23T14:46:26;6.37;;;5.87;;
3939;SDS011;1984;48.312;9.244;2022-07-23T14:48:52;6.87;;;5.60;;
3939;SDS011;1984;48.312;9.244;2022-07-23T14:51:18;6.33;;;5.47;;
3939;SDS011;1984;48.312;9.244;2022-07-23T14:53:43;5.77;;;5.20;;
3939;SDS011;1984;48.312;9.244;2022-07-23T14:56:09;6.33;;;5.73;;
3939;SDS011;1984;48.312;9.244;2022-07-23T14:58:34;6.30;;;5.23;;
3939;SDS011;1984;48.312;9.244;2022-07-23T15:01:00;5.70;;;5.17;;
3939;SDS011;1984;48.312;9.244;2022-07-23T15:03:25;7.17;;;5.67;;
3939;SDS011;1984;48.312;9.244;2022-07-23T15:05:51;8.50;;;5.50;;
3939;SDS011;1984;48.312;9.244;2022-07-23T15:08:17;5.93;;;5.33;;
3939;SDS011;1984;48.312;9.244;2022-07-23T15:10:42;5.77;;;5.20;;
3939;SDS011;1984;48.312;9.244;2022-07-23T15:13:08;5.80;;;5.30;;
3939;SDS011;1984;48.312;9.244;2022-07-23T15:15:33;5.33;;;4.83;;
3939;SDS011;1984;48.312;9.244;2022-07-23T15:17:59;5.73;;;5.17;;
3939;SDS011;1984;48.312;9.244;2022-07-23T15:20:25;5.47;;;4.97;;
3939;SDS011;1984;48.312;9.244;2022-07-23T15:22:50;6.37;;;5.77;;
3939;SDS011;1984;48.312;9.244;2022-07-23T15:25:16;5.67;;;5.17;;
3939;SDS011;1984;48.312;9.244;2022-07-23T15:27:41;14.00;;;5.90;;
3939;SDS011;1984;48.312;9.244;2022-07-23T15:30:07;11.37;;;5.40;;
3939;SDS011;1984;48.312;9.244;2022-07-23T15:32:33;6.20;;;5.17;;
3939;SDS011;1984;48.312;9.244;2022-07-23T15:34:59;6.17;;;5.57;;
3939;SDS011;1984;48.312;9.244;2022-07-23T15:37:25;6.53;;;5.60;;
3939;SDS011;1984;48.312;9.244;2022-07-23T15:39:51;6.00;;;5.50;;
3939;SDS011;1984;48.312;9.244;2022-07-23T15:42:17;7.73;;;4.90;;
3939;SDS011;1984;48.312;9.244;2022-07-23T15:44:42;6.40;;;5.80;;
3939;SDS011;1984;48.312;9.244;2022-07-23T15:47:12;6.87;;;5.63;;
3939;SDS011;1984;48.312;9.244;2022-07-23T15:49:41;6.43;;;5.83;;
3939;SDS011;1984;48.312;9.244;2022-07-23T15:52:06;9.73;;;7.00;;
3939;SDS011;1984;48.312;9.244;2022-07-23T15:54:34;7.03;;;6.33;;
3939;SDS011;1984;48.312;9.244;2022-07-23T15:57:01;7.30;;;5.93;;
3939;SDS011;1984;48.312;9.244;2022-07-23T15:59:28;6.50;;;5.73;;
3939;SDS011;1984;48.312;9.244;2022-07-23T16:01:53;5.50;;;5.00;;
3939;SDS011;1984;48.312;9.244;2022-07-23T16:04:19;7.57;;;5.67;;